sensor_id;sensor_type;location;lat;lon;timestamp;P1;durP1;ratioP1;P2;durP2;ratioP2
29238;SDS011;16267;48.194;11.546;2023-03-05T00:01:09;59.28;;;28.90;;
29238;SDS011;16267;48.194;11.546;2023-03-05T00:03:38;57.55;;;29.30;;
29238;SDS011;16267;48.194;11.546;2023-03-05T00:06:05;49.20;;;26.60;;
29238;SDS011;16267;48.194;11.546;2023-03-05T00:08:31;49.25;;;26.48;;
29238;SDS011;16267;48.194;11.546;2023-03-05T00:10:58;54.00;;;27.88;;
29238;SDS011;16267;48.194;11.546;2023-03-05T00:13:27;52.60;;;27.42;;
29238;SDS011;16267;48.194;11.546;2023-03-05T00:15:53;57.13;;;28.73;;
29238;SDS011;16267;48.194;11.546;2023-03-05T00:18:19;48.15;;;26.80;;
29238;SDS011;16267;48.194;11.546;2023-03-05T00:20:46;53.13;;;26.60;;
29238;SDS011;16267;48.194;11.546;2023-03-05T00:23:12;56.20;;;28.95;;
29238;SDS011;16267;48.194;11.546;2023-03-05T00:25:38;51.70;;;27.40;;
29238;SDS011;16267;48.194;11.546;2023-03-05T00:28:05;60.78;;;30.00;;
29238;SDS011;16267;48.194;11.546;2023-03-05T00:30:32;58.35;;;28.58;;
29238;SDS011;16267;48.194;11.546;2023-03-05T00:32:59;54.60;;;27.88;;
29238;SDS011;16267;48.194;11.546;2023-03-05T00:35:25;57.08;;;28.65;;
29238;SDS011;16267;48.194;11.546;2023-03-05T00:37:51;56.95;;;29.20;;
29238;SDS011;16267;48.194;11.546;2023-03-05T00:40:17;53.50;;;27.55;;
29238;SDS011;16267;48.194;11.546;2023-03-05T00:42:43;52.92;;;28.30;;
29238;SDS011;16267;48.194;11.546;2023-03-05T00:45:09;53.45;;;28.52;;
29238;SDS011;16267;48.194;11.546;2023-03-05T00:47:36;60.92;;;28.10;;
29238;SDS011;16267;48.194;11.546;2023-03-05T00:50:03;56.30;;;29.02;;
29238;SDS011;16267;48.194;11.546;2023-03-05T00:52:31;54.60;;;28.83;;
29238;SDS011;16267;48.194;11.546;2023-03-05T00:54:56;62.40;;;30.02;;
29238;SDS011;16267;48.194;11.546;2023-03-05T00:57:22;56.35;;;28.15;;
29238;SDS011;16267;48.194;11.546;2023-03-05T00:59:48;53.72;;;26.95;;
29238;SDS011;16267;48.194;11.546;2023-03-05T01:02:14;57.38;;;29.17;;
29238;SDS011;16267;48.194;11.546;2023-03-05T01:04:40;56.75;;;28.85;;
29238;SDS011;16267;48.194;11.546;2023-03-05T01:07:07;57.95;;;29.42;;
29238;SDS011;16267;48.194;11.546;2023-03-05T01:09:33;59.25;;;29.13;;
29238;SDS011;16267;48.194;11.546;2023-03-05T01:11:59;56.70;;;28.75;;
29238;SDS011;16267;48.194;11.546;2023-03-05T01:14:24;57.58;;;28.88;;
29238;SDS011;16267;48.194;11.546;2023-03-05T01:16:52;59.85;;;30.20;;
29238;SDS011;16267;48.194;11.546;2023-03-05T01:19:18;62.60;;;29.90;;
29238;SDS011;16267;48.194;11.546;2023-03-05T01:21:44;64.65;;;30.35;;
29238;SDS011;16267;48.194;11.546;2023-03-05T01:24:09;61.40;;;27.38;;
29238;SDS011;16267;48.194;11.546;2023-03-05T01:26:35;58.38;;;29.15;;
29238;SDS011;16267;48.194;11.546;2023-03-05T01:29:01;59.00;;;28.50;;
29238;SDS011;16267;48.194;11.546;2023-03-05T01:31:27;59.75;;;28.70;;
29238;SDS011;16267;48.194;11.546;2023-03-05T01:33:54;58.15;;;29.52;;
29238;SDS011;16267;48.194;11.546;2023-03-05T01:36:20;58.88;;;28.80;;
29238;SDS011;16267;48.194;11.546;2023-03-05T01:38:49;59.10;;;28.83;;
29238;SDS011;16267;48.194;11.546;2023-03-05T01:41:16;56.80;;;28.75;;
29238;SDS011;16267;48.194;11.546;2023-03-05T01:43:44;53.10;;;27.02;;
29238;SDS011;16267;48.194;11.546;2023-03-05T01:48:53;59.17;;;30.25;;
29238;SDS011;16267;48.194;11.546;2023-03-05T01:57:49;64.13;;;30.42;;
29238;SDS011;16267;48.194;11.546;2023-03-05T02:00:26;60.65;;;29.88;;
29238;SDS011;16267;48.194;11.546;2023-03-05T02:03:00;60.58;;;29.33;;
29238;SDS011;16267;48.194;11.546;2023-03-05T02:05:32;55.22;;;28.13;;
29238;SDS011;16267;48.194;11.546;2023-03-05T02:08:06;59.95;;;29.67;;
29238;SDS011;16267;48.194;11.546;2023-03-05T02:10:35;60.00;;;28.73;;
29238;SDS011;16267;48.194;11.546;2023-03-05T02:13:09;60.38;;;29.90;;
29238;SDS011;16267;48.194;11.546;2023-03-05T02:15:46;60.30;;;29.38;;
29238;SDS011;16267;48.194;11.546;2023-03-05T02:18:14;57.92;;;30.73;;
29238;SDS011;16267;48.194;11.546;2023-03-05T02:21:03;62.85;;;31.17;;
29238;SDS011;16267;48.194;11.546;2023-03-05T02:23:33;63.17;;;29.60;;
29238;SDS011;16267;48.194;11.546;2023-03-05T02:26:01;64.13;;;31.70;;
29238;SDS011;16267;48.194;11.546;2023-03-05T02:28:31;58.80;;;30.55;;
29238;SDS011;16267;48.194;11.546;2023-03-05T02:31:12;60.33;;;31.02;;
29238;SDS011;16267;48.194;11.546;2023-03-05T02:33:46;62.50;;;30.20;;
29238;SDS011;16267;48.194;11.546;2023-03-05T02:36:13;65.35;;;30.00;;
29238;SDS011;16267;48.194;11.546;2023-03-05T02:38:42;60.75;;;29.60;;
29238;SDS011;16267;48.194;11.546;2023-03-05T02:41:09;62.42;;;29.15;;
29238;SDS011;16267;48.194;11.546;2023-03-05T02:43:35;64.60;;;32.97;;
29238;SDS011;16267;48.194;11.546;2023-03-05T02:46:02;62.80;;;30.65;;
29238;SDS011;16267;48.194;11.546;2023-03-05T02:48:28;63.72;;;29.45;;
29238;SDS011;16267;48.194;11.546;2023-03-05T02:50:54;66.25;;;33.53;;
29238;SDS011;16267;48.194;11.546;2023-03-05T02:53:20;67.43;;;31.83;;
29238;SDS011;16267;48.194;11.546;2023-03-05T02:55:47;57.88;;;30.95;;
29238;SDS011;16267;48.194;11.546;2023-03-05T02:58:14;67.32;;;30.63;;
29238;SDS011;16267;48.194;11.546;2023-03-05T03:00:40;67.30;;;31.95;;
29238;SDS011;16267;48.194;11.546;2023-03-05T03:03:07;66.53;;;32.13;;
29238;SDS011;16267;48.194;11.546;2023-03-05T03:05:34;68.78;;;31.63;;
29238;SDS011;16267;48.194;11.546;2023-03-05T03:08:00;73.47;;;33.72;;
29238;SDS011;16267;48.194;11.546;2023-03-05T03:10:27;64.60;;;31.58;;
29238;SDS011;16267;48.194;11.546;2023-03-05T03:12:53;63.88;;;32.28;;
29238;SDS011;16267;48.194;11.546;2023-03-05T03:15:19;67.47;;;32.30;;
29238;SDS011;16267;48.194;11.546;2023-03-05T03:17:44;67.25;;;32.13;;
29238;SDS011;16267;48.194;11.546;2023-03-05T03:20:11;65.32;;;31.90;;
29238;SDS011;16267;48.194;11.546;2023-03-05T03:22:40;61.58;;;30.17;;
29238;SDS011;16267;48.194;11.546;2023-03-05T03:25:09;63.90;;;31.23;;
29238;SDS011;16267;48.194;11.546;2023-03-05T03:27:40;63.13;;;31.35;;
29238;SDS011;16267;48.194;11.546;2023-03-05T03:30:06;62.03;;;31.05;;
29238;SDS011;16267;48.194;11.546;2023-03-05T03:32:33;63.70;;;31.30;;
29238;SDS011;16267;48.194;11.546;2023-03-05T03:34:59;68.13;;;30.42;;
29238;SDS011;16267;48.194;11.546;2023-03-05T03:37:25;60.67;;;30.92;;
29238;SDS011;16267;48.194;11.546;2023-03-05T03:39:51;67.03;;;31.30;;
29238;SDS011;16267;48.194;11.546;2023-03-05T03:42:17;60.05;;;30.27;;
29238;SDS011;16267;48.194;11.546;2023-03-05T03:44:45;64.57;;;31.38;;
29238;SDS011;16267;48.194;11.546;2023-03-05T03:47:11;64.80;;;32.30;;
29238;SDS011;16267;48.194;11.546;2023-03-05T03:49:37;64.00;;;30.42;;
29238;SDS011;16267;48.194;11.546;2023-03-05T03:52:03;60.08;;;30.70;;
29238;SDS011;16267;48.194;11.546;2023-03-05T03:54:29;63.90;;;32.05;;
29238;SDS011;16267;48.194;11.546;2023-03-05T03:56:56;62.28;;;30.35;;
29238;SDS011;16267;48.194;11.546;2023-03-05T03:59:21;64.53;;;30.40;;
29238;SDS011;16267;48.194;11.546;2023-03-05T04:01:47;67.75;;;31.42;;
29238;SDS011;16267;48.194;11.546;2023-03-05T04:04:13;60.15;;;31.00;;
29238;SDS011;16267;48.194;11.546;2023-03-05T04:06:39;61.05;;;30.40;;
29238;SDS011;16267;48.194;11.546;2023-03-05T04:09:06;60.42;;;29.38;;
29238;SDS011;16267;48.194;11.546;2023-03-05T04:11:34;63.08;;;29.95;;
29238;SDS011;16267;48.194;11.546;2023-03-05T04:14:02;61.08;;;30.02;;
29238;SDS011;16267;48.194;11.546;2023-03-05T04:16:28;56.47;;;29.90;;
29238;SDS011;16267;48.194;11.546;2023-03-05T04:18:54;62.38;;;30.58;;
29238;SDS011;16267;48.194;11.546;2023-03-05T04:21:20;63.60;;;31.73;;
29238;SDS011;16267;48.194;11.546;2023-03-05T04:23:45;66.25;;;31.42;;
29238;SDS011;16267;48.194;11.546;2023-03-05T04:26:11;64.00;;;30.70;;
29238;SDS011;16267;48.194;11.546;2023-03-05T04:28:37;64.22;;;30.80;;
29238;SDS011;16267;48.194;11.546;2023-03-05T04:31:03;60.25;;;29.23;;
29238;SDS011;16267;48.194;11.546;2023-03-05T04:33:29;60.63;;;29.10;;
29238;SDS011;16267;48.194;11.546;2023-03-05T04:35:55;58.05;;;29.15;;
29238;SDS011;16267;48.194;11.546;2023-03-05T04:38:21;62.75;;;31.23;;
29238;SDS011;16267;48.194;11.546;2023-03-05T04:40:47;64.55;;;30.42;;
29238;SDS011;16267;48.194;11.546;2023-03-05T04:43:12;67.70;;;31.85;;
29238;SDS011;16267;48.194;11.546;2023-03-05T04:45:39;61.05;;;29.15;;
29238;SDS011;16267;48.194;11.546;2023-03-05T04:48:06;56.65;;;28.88;;
29238;SDS011;16267;48.194;11.546;2023-03-05T04:50:33;59.10;;;29.17;;
29238;SDS011;16267;48.194;11.546;2023-03-05T04:52:59;63.55;;;29.08;;
29238;SDS011;16267;48.194;11.546;2023-03-05T04:55:25;65.45;;;30.90;;
29238;SDS011;16267;48.194;11.546;2023-03-05T04:57:51;61.45;;;30.27;;
29238;SDS011;16267;48.194;11.546;2023-03-05T05:00:17;60.47;;;29.52;;
29238;SDS011;16267;48.194;11.546;2023-03-05T05:02:44;60.88;;;27.98;;
29238;SDS011;16267;48.194;11.546;2023-03-05T05:05:13;59.67;;;28.65;;
29238;SDS011;16267;48.194;11.546;2023-03-05T05:07:44;57.42;;;27.92;;
29238;SDS011;16267;48.194;11.546;2023-03-05T05:10:11;59.72;;;28.38;;
29238;SDS011;16267;48.194;11.546;2023-03-05T05:12:38;60.08;;;28.67;;
29238;SDS011;16267;48.194;11.546;2023-03-05T05:15:04;56.45;;;28.17;;
29238;SDS011;16267;48.194;11.546;2023-03-05T05:17:32;58.00;;;28.42;;
29238;SDS011;16267;48.194;11.546;2023-03-05T05:20:01;59.28;;;28.13;;
29238;SDS011;16267;48.194;11.546;2023-03-05T05:22:31;65.05;;;29.75;;
29238;SDS011;16267;48.194;11.546;2023-03-05T05:24:57;60.05;;;29.67;;
29238;SDS011;16267;48.194;11.546;2023-03-05T05:27:23;63.72;;;29.33;;
29238;SDS011;16267;48.194;11.546;2023-03-05T05:29:49;58.45;;;27.77;;
29238;SDS011;16267;48.194;11.546;2023-03-05T05:32:16;57.63;;;28.08;;
29238;SDS011;16267;48.194;11.546;2023-03-05T05:34:44;59.97;;;29.05;;
29238;SDS011;16267;48.194;11.546;2023-03-05T05:37:10;58.53;;;28.55;;
29238;SDS011;16267;48.194;11.546;2023-03-05T05:39:36;58.42;;;28.33;;
29238;SDS011;16267;48.194;11.546;2023-03-05T05:42:02;64.30;;;29.20;;
29238;SDS011;16267;48.194;11.546;2023-03-05T05:44:27;57.00;;;28.42;;
29238;SDS011;16267;48.194;11.546;2023-03-05T05:46:53;54.00;;;27.00;;
29238;SDS011;16267;48.194;11.546;2023-03-05T05:49:19;58.08;;;27.88;;
29238;SDS011;16267;48.194;11.546;2023-03-05T05:51:45;55.83;;;26.40;;
29238;SDS011;16267;48.194;11.546;2023-03-05T05:54:14;61.65;;;28.70;;
29238;SDS011;16267;48.194;11.546;2023-03-05T05:56:40;57.88;;;27.30;;
29238;SDS011;16267;48.194;11.546;2023-03-05T05:59:06;56.30;;;28.30;;
29238;SDS011;16267;48.194;11.546;2023-03-05T06:01:34;56.42;;;27.58;;
29238;SDS011;16267;48.194;11.546;2023-03-05T06:04:00;63.17;;;29.27;;
29238;SDS011;16267;48.194;11.546;2023-03-05T06:06:26;56.35;;;28.10;;
29238;SDS011;16267;48.194;11.546;2023-03-05T06:08:53;58.25;;;27.50;;
29238;SDS011;16267;48.194;11.546;2023-03-05T06:11:19;62.03;;;27.70;;
29238;SDS011;16267;48.194;11.546;2023-03-05T06:13:46;57.70;;;27.15;;
29238;SDS011;16267;48.194;11.546;2023-03-05T06:16:14;58.92;;;28.02;;
29238;SDS011;16267;48.194;11.546;2023-03-05T06:18:42;58.45;;;26.83;;
29238;SDS011;16267;48.194;11.546;2023-03-05T06:21:10;54.13;;;26.05;;
29238;SDS011;16267;48.194;11.546;2023-03-05T06:23:39;60.67;;;27.88;;
29238;SDS011;16267;48.194;11.546;2023-03-05T06:26:05;57.50;;;28.83;;
29238;SDS011;16267;48.194;11.546;2023-03-05T06:28:32;55.42;;;27.42;;
29238;SDS011;16267;48.194;11.546;2023-03-05T06:31:18;58.17;;;26.90;;
29238;SDS011;16267;48.194;11.546;2023-03-05T06:33:47;56.38;;;27.58;;
29238;SDS011;16267;48.194;11.546;2023-03-05T06:36:14;60.35;;;27.35;;
29238;SDS011;16267;48.194;11.546;2023-03-05T06:38:41;54.33;;;25.63;;
29238;SDS011;16267;48.194;11.546;2023-03-05T06:41:09;63.83;;;28.30;;
29238;SDS011;16267;48.194;11.546;2023-03-05T06:43:39;58.97;;;26.75;;
29238;SDS011;16267;48.194;11.546;2023-03-05T06:46:12;53.03;;;26.13;;
29238;SDS011;16267;48.194;11.546;2023-03-05T06:48:49;57.05;;;25.95;;
29238;SDS011;16267;48.194;11.546;2023-03-05T06:51:20;59.13;;;26.42;;
29238;SDS011;16267;48.194;11.546;2023-03-05T06:53:48;57.78;;;26.67;;
29238;SDS011;16267;48.194;11.546;2023-03-05T06:56:16;53.70;;;26.85;;
29238;SDS011;16267;48.194;11.546;2023-03-05T06:58:43;56.50;;;26.70;;
29238;SDS011;16267;48.194;11.546;2023-03-05T07:01:12;63.70;;;28.35;;
29238;SDS011;16267;48.194;11.546;2023-03-05T07:03:39;54.22;;;26.33;;
29238;SDS011;16267;48.194;11.546;2023-03-05T07:06:07;54.08;;;25.80;;
29238;SDS011;16267;48.194;11.546;2023-03-05T07:08:35;55.13;;;26.52;;
29238;SDS011;16267;48.194;11.546;2023-03-05T07:11:02;53.03;;;26.05;;
29238;SDS011;16267;48.194;11.546;2023-03-05T07:13:33;55.60;;;26.20;;
29238;SDS011;16267;48.194;11.546;2023-03-05T07:15:58;58.13;;;26.27;;
29238;SDS011;16267;48.194;11.546;2023-03-05T07:18:31;53.60;;;26.58;;
29238;SDS011;16267;48.194;11.546;2023-03-05T07:21:00;54.92;;;27.15;;
29238;SDS011;16267;48.194;11.546;2023-03-05T07:23:31;52.72;;;26.27;;
29238;SDS011;16267;48.194;11.546;2023-03-05T07:26:02;52.88;;;26.23;;
29238;SDS011;16267;48.194;11.546;2023-03-05T07:28:30;53.55;;;25.60;;
29238;SDS011;16267;48.194;11.546;2023-03-05T07:30:57;59.08;;;26.23;;
29238;SDS011;16267;48.194;11.546;2023-03-05T07:33:25;56.03;;;27.38;;
29238;SDS011;16267;48.194;11.546;2023-03-05T07:35:51;57.25;;;25.65;;
29238;SDS011;16267;48.194;11.546;2023-03-05T07:38:17;52.63;;;25.10;;
29238;SDS011;16267;48.194;11.546;2023-03-05T07:40:44;56.15;;;26.95;;
29238;SDS011;16267;48.194;11.546;2023-03-05T07:43:10;55.28;;;26.25;;
29238;SDS011;16267;48.194;11.546;2023-03-05T07:45:40;58.95;;;26.85;;
29238;SDS011;16267;48.194;11.546;2023-03-05T07:48:07;53.88;;;26.45;;
29238;SDS011;16267;48.194;11.546;2023-03-05T07:50:38;57.03;;;26.10;;
29238;SDS011;16267;48.194;11.546;2023-03-05T07:53:04;53.00;;;25.63;;
29238;SDS011;16267;48.194;11.546;2023-03-05T07:55:30;53.47;;;25.50;;
29238;SDS011;16267;48.194;11.546;2023-03-05T07:57:56;53.17;;;24.63;;
29238;SDS011;16267;48.194;11.546;2023-03-05T08:00:21;62.10;;;26.92;;
29238;SDS011;16267;48.194;11.546;2023-03-05T08:02:47;57.78;;;26.17;;
29238;SDS011;16267;48.194;11.546;2023-03-05T08:05:14;53.65;;;26.13;;
29238;SDS011;16267;48.194;11.546;2023-03-05T08:07:40;57.90;;;26.27;;
29238;SDS011;16267;48.194;11.546;2023-03-05T08:10:06;53.15;;;25.63;;
29238;SDS011;16267;48.194;11.546;2023-03-05T08:12:33;53.53;;;25.25;;
29238;SDS011;16267;48.194;11.546;2023-03-05T08:14:59;52.70;;;26.83;;
29238;SDS011;16267;48.194;11.546;2023-03-05T08:17:25;53.95;;;25.92;;
29238;SDS011;16267;48.194;11.546;2023-03-05T08:19:51;52.05;;;25.20;;
29238;SDS011;16267;48.194;11.546;2023-03-05T08:22:21;54.13;;;25.70;;
29238;SDS011;16267;48.194;11.546;2023-03-05T08:24:47;47.65;;;25.35;;
29238;SDS011;16267;48.194;11.546;2023-03-05T08:27:14;55.15;;;25.90;;
29238;SDS011;16267;48.194;11.546;2023-03-05T08:29:40;59.97;;;27.10;;
29238;SDS011;16267;48.194;11.546;2023-03-05T08:32:06;48.22;;;25.30;;
29238;SDS011;16267;48.194;11.546;2023-03-05T08:34:31;49.80;;;24.63;;
29238;SDS011;16267;48.194;11.546;2023-03-05T08:36:57;53.92;;;25.65;;
29238;SDS011;16267;48.194;11.546;2023-03-05T08:39:23;48.95;;;25.15;;
29238;SDS011;16267;48.194;11.546;2023-03-05T08:41:50;53.95;;;24.42;;
29238;SDS011;16267;48.194;11.546;2023-03-05T08:44:16;53.60;;;25.27;;
29238;SDS011;16267;48.194;11.546;2023-03-05T08:46:41;46.17;;;23.73;;
29238;SDS011;16267;48.194;11.546;2023-03-05T08:49:08;55.53;;;24.48;;
29238;SDS011;16267;48.194;11.546;2023-03-05T08:51:34;54.45;;;25.17;;
29238;SDS011;16267;48.194;11.546;2023-03-05T08:54:00;53.08;;;25.13;;
29238;SDS011;16267;48.194;11.546;2023-03-05T08:56:30;53.90;;;24.83;;
29238;SDS011;16267;48.194;11.546;2023-03-05T08:58:57;52.75;;;24.95;;
29238;SDS011;16267;48.194;11.546;2023-03-05T09:01:23;47.92;;;24.00;;
29238;SDS011;16267;48.194;11.546;2023-03-05T09:03:49;51.10;;;23.83;;
29238;SDS011;16267;48.194;11.546;2023-03-05T09:06:15;50.17;;;24.98;;
29238;SDS011;16267;48.194;11.546;2023-03-05T09:08:41;50.08;;;25.27;;
29238;SDS011;16267;48.194;11.546;2023-03-05T09:11:07;51.25;;;25.75;;
29238;SDS011;16267;48.194;11.546;2023-03-05T09:13:36;52.45;;;25.48;;
29238;SDS011;16267;48.194;11.546;2023-03-05T09:16:03;53.50;;;25.70;;
29238;SDS011;16267;48.194;11.546;2023-03-05T09:18:31;61.80;;;25.48;;
29238;SDS011;16267;48.194;11.546;2023-03-05T09:21:03;52.53;;;26.30;;
29238;SDS011;16267;48.194;11.546;2023-03-05T09:23:37;52.63;;;25.40;;
29238;SDS011;16267;48.194;11.546;2023-03-05T09:26:05;53.00;;;25.83;;
29238;SDS011;16267;48.194;11.546;2023-03-05T09:28:33;55.53;;;26.05;;
29238;SDS011;16267;48.194;11.546;2023-03-05T09:31:03;51.67;;;25.25;;
29238;SDS011;16267;48.194;11.546;2023-03-05T09:33:31;45.60;;;19.97;;
29238;SDS011;16267;48.194;11.546;2023-03-05T09:35:59;51.45;;;24.42;;
29238;SDS011;16267;48.194;11.546;2023-03-05T09:38:25;55.35;;;25.95;;
29238;SDS011;16267;48.194;11.546;2023-03-05T09:40:58;57.55;;;26.23;;
29238;SDS011;16267;48.194;11.546;2023-03-05T09:49:36;54.10;;;24.17;;
29238;SDS011;16267;48.194;11.546;2023-03-05T09:52:14;55.00;;;25.25;;
29238;SDS011;16267;48.194;11.546;2023-03-05T09:54:52;55.70;;;27.08;;
29238;SDS011;16267;48.194;11.546;2023-03-05T09:57:21;63.55;;;26.75;;
29238;SDS011;16267;48.194;11.546;2023-03-05T10:00:00;49.83;;;24.98;;
29238;SDS011;16267;48.194;11.546;2023-03-05T10:02:35;60.20;;;25.83;;
29238;SDS011;16267;48.194;11.546;2023-03-05T10:05:16;51.85;;;25.02;;
29238;SDS011;16267;48.194;11.546;2023-03-05T10:07:54;54.88;;;24.88;;
29238;SDS011;16267;48.194;11.546;2023-03-05T10:10:47;51.33;;;26.17;;
29238;SDS011;16267;48.194;11.546;2023-03-05T10:16:09;49.67;;;24.08;;
29238;SDS011;16267;48.194;11.546;2023-03-05T10:25:30;53.45;;;24.52;;
29238;SDS011;16267;48.194;11.546;2023-03-05T10:28:21;45.33;;;24.70;;
29238;SDS011;16267;48.194;11.546;2023-03-05T10:43:03;54.58;;;24.95;;
29238;SDS011;16267;48.194;11.546;2023-03-05T10:45:46;46.92;;;23.42;;
29238;SDS011;16267;48.194;11.546;2023-03-05T10:48:27;51.00;;;22.98;;
29238;SDS011;16267;48.194;11.546;2023-03-05T10:51:23;50.90;;;24.98;;
29238;SDS011;16267;48.194;11.546;2023-03-05T10:54:02;50.40;;;24.42;;
29238;SDS011;16267;48.194;11.546;2023-03-05T10:59:48;51.38;;;23.02;;
29238;SDS011;16267;48.194;11.546;2023-03-05T11:02:22;49.40;;;22.67;;
29238;SDS011;16267;48.194;11.546;2023-03-05T11:04:49;49.17;;;23.52;;
29238;SDS011;16267;48.194;11.546;2023-03-05T11:09:42;50.55;;;23.88;;
29238;SDS011;16267;48.194;11.546;2023-03-05T11:12:25;55.67;;;25.25;;
29238;SDS011;16267;48.194;11.546;2023-03-05T11:34:02;49.40;;;24.80;;
29238;SDS011;16267;48.194;11.546;2023-03-05T11:39:21;46.33;;;23.80;;
29238;SDS011;16267;48.194;11.546;2023-03-05T11:41:52;48.08;;;22.63;;
29238;SDS011;16267;48.194;11.546;2023-03-05T11:44:28;50.65;;;22.50;;
29238;SDS011;16267;48.194;11.546;2023-03-05T11:47:28;44.42;;;22.80;;
29238;SDS011;16267;48.194;11.546;2023-03-05T11:50:17;44.67;;;21.88;;
29238;SDS011;16267;48.194;11.546;2023-03-05T11:52:59;46.08;;;22.08;;
29238;SDS011;16267;48.194;11.546;2023-03-05T11:55:40;46.17;;;21.95;;
29238;SDS011;16267;48.194;11.546;2023-03-05T12:00:59;41.75;;;20.85;;
29238;SDS011;16267;48.194;11.546;2023-03-05T12:03:31;38.72;;;21.08;;
29238;SDS011;16267;48.194;11.546;2023-03-05T12:06:14;43.13;;;19.88;;
29238;SDS011;16267;48.194;11.546;2023-03-05T12:08:53;37.47;;;19.10;;
29238;SDS011;16267;48.194;11.546;2023-03-05T12:11:27;39.40;;;19.70;;
29238;SDS011;16267;48.194;11.546;2023-03-05T12:13:56;42.65;;;19.73;;
29238;SDS011;16267;48.194;11.546;2023-03-05T12:16:38;38.42;;;20.13;;
29238;SDS011;16267;48.194;11.546;2023-03-05T12:19:20;43.70;;;21.17;;
29238;SDS011;16267;48.194;11.546;2023-03-05T12:22:03;38.15;;;19.13;;
29238;SDS011;16267;48.194;11.546;2023-03-05T12:24:39;45.45;;;22.52;;
29238;SDS011;16267;48.194;11.546;2023-03-05T12:27:09;37.85;;;20.98;;
29238;SDS011;16267;48.194;11.546;2023-03-05T12:29:47;40.50;;;20.15;;
29238;SDS011;16267;48.194;11.546;2023-03-05T12:40:31;38.72;;;19.75;;
29238;SDS011;16267;48.194;11.546;2023-03-05T12:43:05;43.42;;;19.55;;
29238;SDS011;16267;48.194;11.546;2023-03-05T12:48:53;40.08;;;18.98;;
29238;SDS011;16267;48.194;11.546;2023-03-05T12:54:52;36.47;;;18.70;;
29238;SDS011;16267;48.194;11.546;2023-03-05T12:57:20;45.72;;;21.35;;
29238;SDS011;16267;48.194;11.546;2023-03-05T13:02:51;43.90;;;19.50;;
29238;SDS011;16267;48.194;11.546;2023-03-05T13:05:30;38.05;;;19.85;;
29238;SDS011;16267;48.194;11.546;2023-03-05T13:11:02;41.70;;;20.08;;
29238;SDS011;16267;48.194;11.546;2023-03-05T13:16:18;37.22;;;19.42;;
29238;SDS011;16267;48.194;11.546;2023-03-05T13:19:01;41.97;;;20.63;;
29238;SDS011;16267;48.194;11.546;2023-03-05T13:21:28;39.65;;;19.25;;
29238;SDS011;16267;48.194;11.546;2023-03-05T13:23:57;43.00;;;20.63;;
29238;SDS011;16267;48.194;11.546;2023-03-05T13:34:27;37.63;;;18.25;;
29238;SDS011;16267;48.194;11.546;2023-03-05T13:37:02;40.47;;;18.52;;
29238;SDS011;16267;48.194;11.546;2023-03-05T13:39:40;39.85;;;20.13;;
29238;SDS011;16267;48.194;11.546;2023-03-05T13:42:22;39.60;;;18.60;;
29238;SDS011;16267;48.194;11.546;2023-03-05T13:44:57;37.83;;;18.60;;
29238;SDS011;16267;48.194;11.546;2023-03-05T13:47:30;36.67;;;19.58;;
29238;SDS011;16267;48.194;11.546;2023-03-05T13:50:02;36.63;;;18.90;;
29238;SDS011;16267;48.194;11.546;2023-03-05T13:52:36;34.42;;;18.40;;
29238;SDS011;16267;48.194;11.546;2023-03-05T13:55:13;35.05;;;18.38;;
29238;SDS011;16267;48.194;11.546;2023-03-05T13:57:42;39.88;;;18.55;;
29238;SDS011;16267;48.194;11.546;2023-03-05T14:05:45;40.30;;;18.35;;
29238;SDS011;16267;48.194;11.546;2023-03-05T14:08:15;37.97;;;18.27;;
29238;SDS011;16267;48.194;11.546;2023-03-05T14:10:51;40.63;;;19.42;;
29238;SDS011;16267;48.194;11.546;2023-03-05T14:13:19;38.67;;;17.95;;
29238;SDS011;16267;48.194;11.546;2023-03-05T14:16:02;35.53;;;17.90;;
29238;SDS011;16267;48.194;11.546;2023-03-05T14:18:36;40.70;;;18.27;;
29238;SDS011;16267;48.194;11.546;2023-03-05T14:21:05;38.38;;;18.08;;
29238;SDS011;16267;48.194;11.546;2023-03-05T14:23:35;41.10;;;18.08;;
29238;SDS011;16267;48.194;11.546;2023-03-05T14:26:15;35.58;;;18.25;;
29238;SDS011;16267;48.194;11.546;2023-03-05T14:28:50;34.08;;;17.70;;
29238;SDS011;16267;48.194;11.546;2023-03-05T14:31:20;33.50;;;16.67;;
29238;SDS011;16267;48.194;11.546;2023-03-05T14:33:48;34.70;;;17.92;;
29238;SDS011;16267;48.194;11.546;2023-03-05T14:36:19;34.17;;;17.63;;
29238;SDS011;16267;48.194;11.546;2023-03-05T14:38:50;39.25;;;17.25;;
29238;SDS011;16267;48.194;11.546;2023-03-05T14:41:18;36.63;;;17.15;;
29238;SDS011;16267;48.194;11.546;2023-03-05T14:44:10;37.25;;;17.65;;
29238;SDS011;16267;48.194;11.546;2023-03-05T14:46:41;33.40;;;17.48;;
29238;SDS011;16267;48.194;11.546;2023-03-05T14:49:12;38.15;;;17.48;;
29238;SDS011;16267;48.194;11.546;2023-03-05T14:51:38;33.13;;;16.75;;
29238;SDS011;16267;48.194;11.546;2023-03-05T14:54:16;33.40;;;16.92;;
29238;SDS011;16267;48.194;11.546;2023-03-05T14:56:45;36.95;;;18.50;;
29238;SDS011;16267;48.194;11.546;2023-03-05T14:59:13;37.83;;;17.90;;
29238;SDS011;16267;48.194;11.546;2023-03-05T15:01:39;38.42;;;19.38;;
29238;SDS011;16267;48.194;11.546;2023-03-05T15:04:04;29.48;;;16.20;;
29238;SDS011;16267;48.194;11.546;2023-03-05T15:06:31;32.38;;;17.05;;
29238;SDS011;16267;48.194;11.546;2023-03-05T15:09:02;30.25;;;14.52;;
29238;SDS011;16267;48.194;11.546;2023-03-05T15:11:29;30.35;;;15.85;;
29238;SDS011;16267;48.194;11.546;2023-03-05T15:13:55;30.65;;;15.20;;
29238;SDS011;16267;48.194;11.546;2023-03-05T15:16:21;32.75;;;15.55;;
29238;SDS011;16267;48.194;11.546;2023-03-05T15:18:47;29.33;;;15.95;;
29238;SDS011;16267;48.194;11.546;2023-03-05T15:21:14;29.77;;;14.57;;
29238;SDS011;16267;48.194;11.546;2023-03-05T15:23:40;28.52;;;13.52;;
29238;SDS011;16267;48.194;11.546;2023-03-05T15:26:08;28.17;;;14.15;;
29238;SDS011;16267;48.194;11.546;2023-03-05T15:28:39;30.75;;;14.20;;
29238;SDS011;16267;48.194;11.546;2023-03-05T15:31:05;30.33;;;13.98;;
29238;SDS011;16267;48.194;11.546;2023-03-05T15:33:31;27.75;;;14.10;;
29238;SDS011;16267;48.194;11.546;2023-03-05T15:35:58;33.00;;;15.77;;
29238;SDS011;16267;48.194;11.546;2023-03-05T15:38:24;27.10;;;13.90;;
29238;SDS011;16267;48.194;11.546;2023-03-05T15:40:50;31.10;;;15.68;;
29238;SDS011;16267;48.194;11.546;2023-03-05T15:43:17;29.60;;;13.40;;
29238;SDS011;16267;48.194;11.546;2023-03-05T15:45:43;24.77;;;12.75;;
29238;SDS011;16267;48.194;11.546;2023-03-05T15:48:09;26.45;;;13.65;;
29238;SDS011;16267;48.194;11.546;2023-03-05T15:50:35;27.25;;;13.95;;
29238;SDS011;16267;48.194;11.546;2023-03-05T15:53:05;26.52;;;13.43;;
29238;SDS011;16267;48.194;11.546;2023-03-05T15:55:35;24.45;;;13.52;;
29238;SDS011;16267;48.194;11.546;2023-03-05T15:58:03;24.00;;;13.35;;
29238;SDS011;16267;48.194;11.546;2023-03-05T16:00:29;24.15;;;12.30;;
29238;SDS011;16267;48.194;11.546;2023-03-05T16:02:56;28.83;;;12.73;;
29238;SDS011;16267;48.194;11.546;2023-03-05T16:05:22;27.27;;;12.68;;